createdAt,value
2023-04-02T00:00:48.415Z,9.41
2023-04-02T00:01:48.451Z,9.37
2023-04-02T00:02:49.463Z,9.40
2023-04-02T00:03:48.384Z,9.44
2023-04-02T00:04:48.422Z,9.37
2023-04-02T00:05:48.391Z,9.44
2023-04-02T00:06:48.389Z,9.47
2023-04-02T00:07:48.330Z,9.44
2023-04-02T00:08:48.329Z,9.48
2023-04-02T00:09:49.232Z,9.36
2023-04-02T00:10:48.345Z,9.44
2023-04-02T00:11:48.308Z,9.39
2023-04-02T00:12:48.300Z,9.39
2023-04-02T00:13:48.302Z,9.41
2023-04-02T00:14:48.829Z,9.47
2023-04-02T00:15:48.855Z,9.50
2023-04-02T00:16:48.446Z,9.46
2023-04-02T00:17:48.364Z,9.46
2023-04-02T00:18:48.279Z,9.43
2023-04-02T00:19:49.241Z,9.46
2023-04-02T00:20:48.243Z,9.36
2023-04-02T00:21:48.265Z,9.36
2023-04-02T00:22:48.227Z,9.29
2023-04-02T00:23:48.351Z,9.34
2023-04-02T00:24:48.260Z,9.31
2023-04-02T00:25:48.931Z,9.29
2023-04-02T00:26:48.339Z,9.29
2023-04-02T00:27:48.249Z,9.40
2023-04-02T00:28:48.173Z,9.28
2023-04-02T00:29:48.168Z,9.36
2023-04-02T00:30:48.161Z,9.32
2023-04-02T00:31:48.206Z,9.34
2023-04-02T00:32:48.366Z,9.36
2023-04-02T00:33:48.170Z,9.36
2023-04-02T00:34:48.153Z,9.40
2023-04-02T00:35:48.702Z,9.36
2023-04-02T00:36:48.335Z,9.34
2023-04-02T00:37:48.258Z,9.40
2023-04-02T00:38:48.779Z,9.39
2023-04-02T00:39:48.097Z,9.40
2023-04-02T00:40:48.084Z,9.32
2023-04-02T00:41:48.101Z,9.40
2023-04-02T00:42:48.188Z,9.39
2023-04-02T00:43:48.203Z,9.40
2023-04-02T00:44:48.056Z,9.40
2023-04-02T00:45:48.093Z,9.43
2023-04-02T00:46:48.081Z,9.43
2023-04-02T00:47:48.356Z,9.47
2023-04-02T00:48:48.009Z,9.41
2023-04-02T00:49:49.107Z,9.43
2023-04-02T00:50:48.119Z,9.29
2023-04-02T00:51:48.020Z,9.10
2023-04-02T00:52:48.106Z,8.91
2023-04-02T00:53:48.140Z,8.81
2023-04-02T00:54:48.049Z,8.60
2023-04-02T00:55:47.970Z,8.70
2023-04-02T00:56:47.986Z,8.52
2023-04-02T00:57:48.078Z,8.48
2023-04-02T00:58:47.991Z,8.37
2023-04-02T00:59:47.951Z,8.38
2023-04-02T01:00:47.947Z,8.42
2023-04-02T01:01:48.044Z,8.41
2023-04-02T01:02:47.947Z,8.28
2023-04-02T01:03:47.996Z,8.33
2023-04-02T01:04:47.904Z,8.23
2023-04-02T01:05:47.908Z,8.26
2023-04-02T01:06:47.894Z,8.26
2023-04-02T01:07:47.876Z,8.28
2023-04-02T01:08:47.909Z,8.30
2023-04-02T01:09:47.857Z,8.19
2023-04-02T01:10:48.907Z,8.13
2023-04-02T01:11:47.863Z,8.13
2023-04-02T01:12:47.859Z,8.06
2023-04-02T01:13:47.829Z,7.98
2023-04-02T01:14:47.844Z,7.93
2023-04-02T01:15:48.777Z,7.90
2023-04-02T01:16:47.799Z,7.83
2023-04-02T01:17:47.836Z,7.79
2023-04-02T01:18:47.799Z,7.73
2023-04-02T01:19:47.817Z,7.88
2023-04-02T01:20:47.797Z,7.82
2023-04-02T01:21:47.763Z,7.77
2023-04-02T01:22:47.808Z,7.76
2023-04-02T01:23:47.746Z,7.70
2023-04-02T01:24:47.831Z,7.75
2023-04-02T01:25:47.775Z,7.80
2023-04-02T01:26:47.745Z,7.66
2023-04-02T01:27:47.768Z,7.75
2023-04-02T01:28:47.739Z,7.72
2023-04-02T01:29:47.785Z,7.67
2023-04-02T01:30:48.565Z,7.69
2023-04-02T01:31:47.793Z,7.60
2023-04-02T01:32:47.727Z,7.66
2023-04-02T01:33:47.786Z,7.69
2023-04-02T01:34:47.667Z,7.70
2023-04-02T01:35:47.688Z,7.66
2023-04-02T01:36:47.663Z,7.60
2023-04-02T01:37:47.649Z,7.54
2023-04-02T01:38:47.652Z,7.38
2023-04-02T01:39:47.724Z,7.51
2023-04-02T01:40:47.699Z,7.47
2023-04-02T01:41:47.657Z,7.45
2023-04-02T01:42:47.653Z,7.40
2023-04-02T01:43:48.274Z,7.48
2023-04-02T01:44:47.613Z,7.45
2023-04-02T01:45:47.613Z,7.32
2023-04-02T01:46:47.680Z,7.36
2023-04-02T01:47:47.654Z,7.42
2023-04-02T01:48:47.562Z,7.36
2023-04-02T01:49:47.587Z,7.48
2023-04-02T01:50:47.577Z,7.51
2023-04-02T01:51:47.534Z,7.48
2023-04-02T01:52:47.553Z,7.40
2023-04-02T01:53:47.539Z,7.36
2023-04-02T01:54:47.544Z,7.33
2023-04-02T01:55:47.509Z,7.42
2023-04-02T01:56:47.573Z,7.45
2023-04-02T01:57:47.553Z,7.23
2023-04-02T01:58:47.527Z,7.21
2023-04-02T01:59:47.469Z,7.31
2023-04-02T02:00:48.683Z,7.28
2023-04-02T02:01:47.504Z,7.23
2023-04-02T02:02:47.488Z,7.14
2023-04-02T02:03:47.501Z,7.07
2023-04-02T02:04:47.481Z,7.07
2023-04-02T02:05:47.429Z,7.05
2023-04-02T02:06:48.330Z,7.05
2023-04-02T02:07:47.439Z,7.10
2023-04-02T02:08:47.461Z,7.06
2023-04-02T02:09:47.522Z,7.00
2023-04-02T02:10:47.415Z,7.02
2023-04-02T02:11:48.240Z,6.97
2023-04-02T02:12:47.385Z,7.03
2023-04-02T02:13:47.438Z,7.03
2023-04-02T02:14:47.449Z,7.00
2023-04-02T02:15:47.375Z,6.99
2023-04-02T02:16:47.394Z,6.99
2023-04-02T02:17:47.368Z,7.03
2023-04-02T02:18:47.387Z,7.10
2023-04-02T02:19:47.349Z,7.00
2023-04-02T02:20:47.360Z,7.07
2023-04-02T02:21:47.326Z,7.05
2023-04-02T02:22:47.298Z,6.97
2023-04-02T02:23:47.336Z,7.02
2023-04-02T02:24:47.323Z,6.97
2023-04-02T02:25:47.286Z,6.87
2023-04-02T02:26:47.323Z,7.00
2023-04-02T02:27:47.265Z,6.92
2023-04-02T02:28:47.264Z,6.95
2023-04-02T02:29:48.196Z,6.96
2023-04-02T02:30:47.279Z,6.89
2023-04-02T02:31:47.273Z,6.93
2023-04-02T02:32:47.293Z,6.89
2023-04-02T02:33:47.288Z,6.92
2023-04-02T02:34:47.285Z,6.84
2023-04-02T02:35:47.451Z,6.92
2023-04-02T02:36:47.228Z,6.85
2023-04-02T02:37:47.186Z,6.79
2023-04-02T02:38:47.224Z,6.72
2023-04-02T02:39:47.451Z,6.84
2023-04-02T02:40:47.219Z,6.77
2023-04-02T02:41:47.836Z,6.79
2023-04-02T02:42:47.168Z,6.84
2023-04-02T02:43:47.174Z,6.77
2023-04-02T02:44:47.147Z,6.75
2023-04-02T02:45:47.192Z,6.74
2023-04-02T02:46:47.198Z,6.81
2023-04-02T02:47:47.178Z,6.70
2023-04-02T02:48:47.117Z,6.72
2023-04-02T02:49:48.141Z,6.70
2023-04-02T02:50:47.098Z,6.84
2023-04-02T02:51:47.141Z,6.75
2023-04-02T02:52:47.275Z,6.66
2023-04-02T02:53:47.141Z,6.77
2023-04-02T02:54:47.086Z,6.75
2023-04-02T02:55:47.065Z,6.75
2023-04-02T02:56:47.113Z,6.59
2023-04-02T02:57:47.223Z,6.62
2023-04-02T02:58:47.064Z,6.64
2023-04-02T02:59:47.036Z,6.59
2023-04-02T03:00:47.061Z,6.54
2023-04-02T03:01:47.118Z,6.59
2023-04-02T03:02:47.158Z,6.60
2023-04-02T03:03:47.428Z,6.59
2023-04-02T03:04:47.005Z,6.44
2023-04-02T03:05:47.001Z,6.52
2023-04-02T03:06:46.985Z,6.57
2023-04-02T03:07:47.743Z,6.54
2023-04-02T03:08:47.014Z,6.46
2023-04-02T03:09:46.996Z,6.45
2023-04-02T03:10:46.965Z,6.41
2023-04-02T03:11:47.080Z,6.48
2023-04-02T03:12:46.991Z,6.41
2023-04-02T03:13:46.969Z,6.44
2023-04-02T03:14:46.938Z,6.38
2023-04-02T03:15:47.004Z,6.45
2023-04-02T03:16:46.923Z,6.41
2023-04-02T03:17:47.028Z,6.44
2023-04-02T03:18:46.905Z,6.41
2023-04-02T03:19:46.912Z,6.41
2023-04-02T03:20:47.889Z,6.39
2023-04-02T03:21:46.895Z,6.36
2023-04-02T03:22:46.891Z,6.33
2023-04-02T03:23:46.868Z,6.36
2023-04-02T03:24:46.913Z,6.17
2023-04-02T03:25:46.992Z,6.11
2023-04-02T03:26:46.844Z,6.12
2023-04-02T03:27:46.826Z,6.07
2023-04-02T03:28:46.830Z,6.14
2023-04-02T03:29:46.807Z,6.17
2023-04-02T03:30:47.386Z,6.27
2023-04-02T03:31:46.949Z,6.24
2023-04-02T03:32:46.861Z,6.30
2023-04-02T03:33:46.822Z,6.19
2023-04-02T03:34:46.779Z,6.17
2023-04-02T03:35:47.057Z,6.16
2023-04-02T03:36:46.818Z,6.11
2023-04-02T03:37:46.792Z,6.08
2023-04-02T03:38:46.839Z,6.16
2023-04-02T03:39:46.744Z,6.07
2023-04-02T03:40:46.744Z,6.12
2023-04-02T03:41:46.792Z,6.05
2023-04-02T03:42:46.765Z,6.05
2023-04-02T03:43:46.709Z,6.02
2023-04-02T03:44:46.734Z,6.07
2023-04-02T03:45:46.718Z,6.12
2023-04-02T03:46:47.546Z,6.02
2023-04-02T04:02:55.716Z,6.04
2023-04-02T04:03:55.777Z,6.02
2023-04-02T04:04:55.731Z,6.02
2023-04-02T04:05:55.746Z,5.89
2023-04-02T04:06:55.732Z,5.99
2023-04-02T04:07:56.849Z,5.91
2023-04-02T04:08:56.793Z,5.91
2023-04-02T04:09:56.781Z,5.93
2023-04-02T04:10:57.380Z,5.98
2023-04-02T04:11:57.320Z,5.93
2023-04-02T04:12:56.841Z,5.97
2023-04-02T04:13:57.750Z,5.80
2023-04-02T04:14:56.771Z,5.94
2023-04-02T04:15:57.603Z,5.87
2023-04-02T04:16:56.853Z,5.80
2023-04-02T04:17:57.773Z,5.82
2023-04-02T04:18:56.795Z,5.75
2023-04-02T04:19:56.722Z,5.80
2023-04-02T04:20:56.939Z,5.82
2023-04-02T04:21:57.330Z,5.80
2023-04-02T04:22:56.700Z,5.80
2023-04-02T04:23:56.665Z,5.80
2023-04-02T04:24:57.797Z,5.75
2023-04-02T04:25:56.669Z,5.65
2023-04-02T04:26:56.675Z,5.72
2023-04-02T04:27:56.681Z,5.69
2023-04-02T04:28:56.677Z,5.65
2023-04-02T04:29:56.701Z,5.59
2023-04-02T04:30:56.622Z,5.61
2023-04-02T04:31:56.655Z,5.53
2023-04-02T04:32:56.664Z,5.57
2023-04-02T04:33:57.177Z,5.54
2023-04-02T04:34:56.644Z,5.61
2023-04-02T04:35:56.658Z,5.48
2023-04-02T04:36:56.619Z,5.44
2023-04-02T04:37:56.579Z,5.44
2023-04-02T04:38:57.293Z,5.47
2023-04-02T04:39:56.597Z,5.50
2023-04-02T04:40:56.598Z,5.57
2023-04-02T04:41:56.556Z,5.56
2023-04-02T04:42:56.638Z,5.51
2023-04-02T04:43:56.734Z,5.46
2023-04-02T04:44:56.527Z,5.43
2023-04-02T04:45:57.329Z,5.50
2023-04-02T04:46:56.507Z,5.48
2023-04-02T04:47:56.562Z,5.47
2023-04-02T04:48:56.865Z,5.46
2023-04-02T04:49:57.280Z,5.48
2023-04-02T04:50:56.503Z,5.54
2023-04-02T04:51:56.523Z,5.51
2023-04-02T04:52:56.455Z,5.38
2023-04-02T04:53:56.501Z,5.43
2023-04-02T04:54:57.115Z,5.43
2023-04-02T04:55:59.689Z,5.46
2023-04-02T04:56:57.433Z,5.25
2023-04-02T04:57:56.471Z,5.35
2023-04-02T04:58:56.520Z,5.43
2023-04-02T04:59:56.434Z,5.32
2023-04-02T05:00:56.471Z,5.26
2023-04-02T05:01:56.478Z,5.38
2023-04-02T05:02:56.427Z,5.32
2023-04-02T05:03:56.420Z,5.29
2023-04-02T05:04:56.469Z,5.30
2023-04-02T05:05:56.359Z,5.32
2023-04-02T05:06:56.417Z,5.32
2023-04-02T05:07:57.887Z,5.32
2023-04-02T05:08:56.401Z,5.41
2023-04-02T05:09:56.377Z,5.29
2023-04-02T05:10:56.325Z,5.23
2023-04-02T05:11:56.562Z,5.36
2023-04-02T05:12:56.314Z,5.28
2023-04-02T05:13:56.289Z,5.28
2023-04-02T05:14:56.285Z,5.29
2023-04-02T05:15:56.366Z,5.21
2023-04-02T05:16:56.284Z,5.32
2023-04-02T05:17:56.633Z,5.30
2023-04-02T05:18:56.276Z,5.32
2023-04-02T05:19:56.285Z,5.35
2023-04-02T05:20:56.238Z,5.25
2023-04-02T05:21:56.283Z,5.26
2023-04-02T05:22:57.110Z,5.32
2023-04-02T05:23:56.240Z,5.32
2023-04-02T05:24:56.224Z,5.15
2023-04-02T05:25:56.236Z,5.14
2023-04-02T05:26:56.228Z,5.10
2023-04-02T05:27:56.199Z,5.15
2023-04-02T05:28:56.343Z,5.20
2023-04-02T05:29:56.267Z,5.08
2023-04-02T05:30:56.185Z,5.07
2023-04-02T05:31:56.178Z,5.08
2023-04-02T05:32:56.232Z,4.99
2023-04-02T05:33:56.175Z,5.05
2023-04-02T05:34:56.334Z,5.10
2023-04-02T05:35:56.226Z,5.11
2023-04-02T05:36:56.155Z,5.07
2023-04-02T05:37:56.173Z,4.99
2023-04-02T05:38:56.116Z,5.00
2023-04-02T05:39:56.338Z,4.99
2023-04-02T05:40:56.103Z,5.07
2023-04-02T05:41:56.089Z,4.96
2023-04-02T05:42:56.126Z,4.97
2023-04-02T05:43:56.099Z,4.99
2023-04-02T05:44:56.080Z,4.99
2023-04-02T05:45:56.817Z,5.00
2023-04-02T05:46:56.104Z,4.96
2023-04-02T05:47:56.054Z,4.99
2023-04-02T05:48:56.034Z,4.99
2023-04-02T05:49:56.039Z,5.10
2023-04-02T05:50:56.026Z,4.93
2023-04-02T05:51:57.504Z,4.90
2023-04-02T05:52:57.011Z,5.02
2023-04-02T05:53:56.041Z,4.96
2023-04-02T05:54:56.004Z,4.86
2023-04-02T05:55:55.979Z,4.94
2023-04-02T05:56:55.990Z,4.77
2023-04-02T05:58:13.375Z,4.92
2023-04-02T05:58:58.194Z,4.77
2023-04-02T05:59:55.971Z,4.94
2023-04-02T06:00:56.054Z,4.87
2023-04-02T06:01:56.016Z,4.90
2023-04-02T06:02:56.025Z,4.93
2023-04-02T06:03:56.031Z,4.90
2023-04-02T06:04:55.956Z,4.99
2023-04-02T06:05:55.977Z,4.80
2023-04-02T06:06:55.971Z,4.86
2023-04-02T06:07:56.611Z,5.00
2023-04-02T06:08:55.898Z,4.93
2023-04-02T06:09:55.876Z,4.77
2023-04-02T06:10:55.882Z,4.89
2023-04-02T06:11:55.918Z,4.80
2023-04-02T06:12:55.859Z,4.96
2023-04-02T06:13:56.774Z,4.94
2023-04-02T06:14:55.871Z,4.75
2023-04-02T06:15:55.837Z,4.78
2023-04-02T06:16:55.872Z,4.78
2023-04-02T06:17:55.965Z,4.84
2023-04-02T06:18:55.810Z,4.93
2023-04-02T06:19:55.800Z,4.87
2023-04-02T06:20:55.862Z,4.75
2023-04-02T06:21:55.805Z,4.78
2023-04-02T06:22:55.809Z,4.70
2023-04-02T06:23:55.769Z,4.77
2023-04-02T06:24:55.778Z,4.77
2023-04-02T06:25:55.776Z,4.67
2023-04-02T06:26:55.745Z,4.75
2023-04-02T06:27:55.789Z,4.73
2023-04-02T06:28:55.767Z,4.73
2023-04-02T06:29:55.744Z,4.80
2023-04-02T06:30:56.360Z,4.75
2023-04-02T06:31:55.740Z,4.71
2023-04-02T06:32:55.852Z,4.71
2023-04-02T06:33:55.694Z,4.73
2023-04-02T06:34:55.704Z,4.70
2023-04-02T06:35:56.277Z,4.74
2023-04-02T06:36:56.348Z,4.71
2023-04-02T06:37:55.687Z,4.77
2023-04-02T06:38:55.686Z,4.74
2023-04-02T06:39:55.703Z,4.77
2023-04-02T06:40:58.219Z,4.77
2023-04-02T06:41:56.299Z,4.74
2023-04-02T06:42:55.632Z,4.77
2023-04-02T06:43:55.646Z,4.71
2023-04-02T06:44:55.623Z,4.71
2023-04-02T06:45:55.679Z,4.73
2023-04-02T06:46:55.625Z,4.70
2023-04-02T06:47:55.635Z,4.74
2023-04-02T06:48:56.296Z,4.73
2023-04-02T06:49:55.886Z,4.75
2023-04-02T06:50:55.592Z,4.68
2023-04-02T06:51:55.570Z,4.73
2023-04-02T06:52:55.592Z,4.75
2023-04-02T06:53:56.208Z,4.70
2023-04-02T06:54:55.563Z,4.59
2023-04-02T06:55:55.564Z,4.74
2023-04-02T06:56:55.576Z,4.60
2023-04-02T06:57:55.523Z,4.71
2023-04-02T06:58:55.519Z,4.71
2023-04-02T06:59:55.491Z,4.75
2023-04-02T07:00:55.523Z,4.70
2023-04-02T07:01:57.857Z,4.70
2023-04-02T07:02:55.545Z,4.74
2023-04-02T07:03:59.369Z,4.67
2023-04-02T07:04:55.620Z,4.73
2023-04-02T07:05:55.530Z,4.62
2023-04-02T07:06:55.888Z,4.60
2023-04-02T07:07:55.498Z,4.74
2023-04-02T07:08:55.439Z,4.62
2023-04-02T07:09:57.628Z,4.71
2023-04-02T07:10:55.490Z,4.73
2023-04-02T07:11:56.344Z,4.60
2023-04-02T07:12:55.530Z,4.59
2023-04-02T07:13:55.444Z,4.68
2023-04-02T07:14:55.575Z,4.74
2023-04-02T07:15:57.240Z,4.75
2023-04-02T07:16:59.380Z,4.75
2023-04-02T07:17:57.200Z,4.90
2023-04-02T07:18:55.873Z,4.86
2023-04-02T07:19:55.427Z,4.74
2023-04-02T07:20:55.388Z,4.80
2023-04-02T07:21:56.122Z,4.77
2023-04-02T07:22:55.404Z,4.73
2023-04-02T07:23:57.647Z,4.75
2023-04-02T07:24:57.689Z,4.75
2023-04-02T07:25:57.258Z,4.73
2023-04-02T07:26:57.268Z,4.68
2023-04-02T07:27:55.328Z,4.63
2023-04-02T07:29:00.289Z,4.58
2023-04-02T07:29:55.308Z,4.59
2023-04-02T07:30:58.214Z,4.63
2023-04-02T07:31:56.920Z,4.60
2023-04-02T07:32:55.322Z,4.55
2023-04-02T07:33:55.305Z,4.55
2023-04-02T07:34:56.221Z,4.59
2023-04-02T07:35:55.294Z,4.66
2023-04-02T07:36:55.233Z,4.77
2023-04-02T07:37:55.864Z,4.73
2023-04-02T07:38:55.295Z,4.74
2023-04-02T07:39:55.187Z,4.63
2023-04-02T07:40:55.244Z,4.53
2023-04-02T07:41:55.157Z,4.59
2023-04-02T07:42:55.216Z,4.59
2023-04-02T07:43:55.333Z,4.59
2023-04-02T07:44:55.371Z,4.60
2023-04-02T07:45:55.140Z,4.66
2023-04-02T07:46:55.160Z,4.66
2023-04-02T07:47:55.286Z,4.60
2023-04-02T07:48:55.121Z,4.62
2023-04-02T07:49:55.360Z,4.62
2023-04-02T07:50:55.144Z,4.56
2023-04-02T07:51:55.124Z,4.60
2023-04-02T07:52:55.102Z,4.60
2023-04-02T07:53:55.104Z,4.73
2023-04-02T07:54:55.097Z,4.73
2023-04-02T07:55:55.141Z,4.55
2023-04-02T07:56:55.076Z,4.50
2023-04-02T07:57:55.035Z,4.55
2023-04-02T07:58:55.092Z,4.59
2023-04-02T07:59:55.631Z,4.48
2023-04-02T08:00:55.045Z,4.52
2023-04-02T08:01:55.191Z,4.41
2023-04-02T08:02:55.236Z,4.44
2023-04-02T08:03:55.108Z,4.48
2023-04-02T08:04:55.006Z,4.56
2023-04-02T08:05:55.830Z,4.42
2023-04-02T08:06:56.357Z,4.48
2023-04-02T08:07:55.005Z,4.44
2023-04-02T08:08:54.982Z,4.49
2023-04-02T08:09:54.973Z,4.45
2023-04-02T08:10:55.056Z,4.45
2023-04-02T08:11:54.971Z,4.42
2023-04-02T08:12:55.799Z,4.48
2023-04-02T08:13:54.928Z,4.45
2023-04-02T08:14:54.937Z,4.48
2023-04-02T08:15:54.920Z,4.31
2023-04-02T08:16:55.003Z,4.45
2023-04-02T08:17:55.172Z,4.42
2023-04-02T08:18:54.920Z,4.38
2023-04-02T08:19:55.435Z,4.26
2023-04-02T08:20:55.915Z,4.37
2023-04-02T08:21:54.996Z,4.26
2023-04-02T08:22:55.907Z,4.41
2023-04-02T08:23:54.884Z,4.44
2023-04-02T08:24:54.889Z,4.30
2023-04-02T08:25:54.916Z,4.28
2023-04-02T08:26:54.861Z,4.45
2023-04-02T08:27:54.879Z,4.49
2023-04-02T08:28:54.854Z,4.40
2023-04-02T08:29:54.852Z,4.44
2023-04-02T08:30:54.860Z,4.45
2023-04-02T08:31:54.834Z,4.48
2023-04-02T08:32:54.862Z,4.48
2023-04-02T08:33:55.371Z,4.53
2023-04-02T08:34:54.808Z,4.48
2023-04-02T08:35:54.839Z,4.48
2023-04-02T08:36:54.772Z,4.45
2023-04-02T08:37:54.807Z,4.32
2023-04-02T08:38:54.809Z,4.40
2023-04-02T08:39:54.833Z,4.32
2023-04-02T08:40:54.760Z,4.31
2023-04-02T08:41:55.032Z,4.35
2023-04-02T08:42:54.807Z,4.45
2023-04-02T08:43:54.771Z,4.38
2023-04-02T08:44:55.071Z,4.44
2023-04-02T08:45:54.838Z,4.45
2023-04-02T08:46:54.702Z,4.50
2023-04-02T08:47:54.805Z,4.50
2023-04-02T08:48:54.801Z,4.45
2023-04-02T08:49:54.640Z,4.52
2023-04-02T08:50:54.894Z,4.50
2023-04-02T08:51:54.700Z,4.50
2023-04-02T08:52:54.684Z,4.48
2023-04-02T08:53:55.172Z,4.34
2023-04-02T08:54:54.658Z,4.42
2023-04-02T08:55:54.855Z,4.41
2023-04-02T08:56:54.649Z,4.40
2023-04-02T08:57:54.654Z,4.48
2023-04-02T08:58:54.656Z,4.38
2023-04-02T08:59:54.634Z,4.32
2023-04-02T09:00:54.591Z,4.48
2023-04-02T09:01:55.408Z,4.50
2023-04-02T09:02:54.630Z,4.60
2023-04-02T09:03:54.598Z,4.58
2023-04-02T09:04:54.622Z,4.34
2023-04-02T09:05:54.551Z,4.40
2023-04-02T09:06:54.572Z,4.48
2023-04-02T09:07:54.580Z,4.42
2023-04-02T09:08:54.580Z,4.45
2023-04-02T09:09:54.530Z,4.50
2023-04-02T09:10:54.553Z,4.50
2023-04-02T09:11:54.519Z,4.59
2023-04-02T09:12:54.503Z,4.62
2023-04-02T09:13:54.569Z,4.62
2023-04-02T09:14:54.480Z,4.67
2023-04-02T09:15:54.525Z,4.59
2023-04-02T09:16:54.526Z,4.66
2023-04-02T09:17:55.371Z,4.73
2023-04-02T09:18:54.663Z,4.74
2023-04-02T09:19:54.447Z,4.73
2023-04-02T09:20:54.444Z,4.58
2023-04-02T09:21:54.486Z,4.45
2023-04-02T09:22:54.429Z,4.48
2023-04-02T09:23:55.149Z,4.48
2023-04-02T09:24:54.413Z,4.49
2023-04-02T09:26:03.666Z,4.40
2023-04-02T09:26:56.417Z,4.34
2023-04-02T09:27:54.412Z,4.31
2023-04-02T09:28:54.438Z,4.17
2023-04-02T09:29:54.576Z,4.41
2023-04-02T09:30:54.425Z,4.48
2023-04-02T09:31:54.428Z,4.31
2023-04-02T09:32:54.417Z,4.44
2023-04-02T09:33:54.398Z,4.34
2023-04-02T09:34:54.352Z,4.32
2023-04-02T09:35:54.405Z,4.28
2023-04-02T09:36:54.461Z,4.26
2023-04-02T09:37:54.336Z,4.30
2023-04-02T09:38:54.392Z,4.40
2023-04-02T09:39:54.321Z,4.40
2023-04-02T09:40:54.302Z,4.42
2023-04-02T09:42:04.957Z,4.45
2023-04-02T09:42:56.267Z,4.59
2023-04-02T09:43:54.272Z,4.62
2023-04-02T09:44:54.248Z,4.60
2023-04-02T09:45:54.387Z,4.60
2023-04-02T09:46:54.917Z,4.59
2023-04-02T09:47:54.287Z,4.68
2023-04-02T09:48:54.248Z,4.60
2023-04-02T09:49:54.258Z,4.71
2023-04-02T09:50:54.229Z,4.71
2023-04-02T09:51:54.569Z,4.75
2023-04-02T09:52:54.226Z,4.74
2023-04-02T09:53:54.206Z,4.70
2023-04-02T09:54:54.200Z,4.71
2023-04-02T09:55:54.183Z,4.66
2023-04-02T09:56:54.841Z,4.71
2023-04-02T09:57:54.208Z,4.74
2023-04-02T09:58:54.193Z,4.68
2023-04-02T09:59:54.145Z,4.71
2023-04-02T10:00:54.220Z,4.73
2023-04-02T10:01:54.127Z,4.73
2023-04-02T10:02:54.248Z,4.75
2023-04-02T10:03:54.146Z,4.70
2023-04-02T10:04:54.223Z,4.66
2023-04-02T10:05:54.135Z,4.50
2023-04-02T10:06:54.121Z,4.56
2023-04-02T10:07:54.088Z,4.58
2023-04-02T10:08:54.149Z,4.60
2023-04-02T10:09:54.085Z,4.62
2023-04-02T10:10:54.091Z,4.67
2023-04-02T10:11:54.087Z,4.63
2023-04-02T10:12:54.043Z,4.67
2023-04-02T10:13:54.072Z,4.70
2023-04-02T10:14:54.852Z,4.68
2023-04-02T10:15:54.028Z,4.67
2023-04-02T10:16:54.058Z,4.60
2023-04-02T10:17:54.068Z,4.70
2023-04-02T10:18:53.995Z,4.59
2023-04-02T10:19:54.651Z,4.63
2023-04-02T10:20:54.012Z,4.53
2023-04-02T10:21:54.040Z,4.55
2023-04-02T10:22:53.964Z,4.62
2023-04-02T10:23:53.993Z,4.45
2023-04-02T10:24:53.984Z,4.32
2023-04-02T10:25:53.933Z,4.31
2023-04-02T10:26:54.078Z,4.50
2023-04-02T10:27:53.961Z,4.52
2023-04-02T10:28:54.909Z,4.31
2023-04-02T10:29:53.923Z,4.40
2023-04-02T10:30:54.022Z,4.22
2023-04-02T10:31:53.991Z,4.30
2023-04-02T10:32:53.964Z,4.28
2023-04-02T10:33:53.910Z,4.42
2023-04-02T10:34:53.901Z,4.49
2023-04-02T10:35:53.997Z,4.55
2023-04-02T10:37:30.300Z,4.53
2023-04-02T10:38:26.840Z,4.55
2023-04-02T10:39:26.309Z,4.53
2023-04-02T10:40:26.457Z,4.45
2023-04-02T10:41:26.853Z,4.42
2023-04-02T10:42:26.962Z,4.38
2023-04-02T10:42:53.895Z,4.45
2023-04-02T10:44:26.646Z,4.32
2023-04-02T10:44:53.818Z,4.13
2023-04-02T10:45:53.896Z,4.10
2023-04-02T10:46:53.856Z,4.12
2023-04-02T10:47:53.820Z,4.08
2023-04-02T10:48:53.788Z,4.31
2023-04-02T10:49:53.848Z,4.31
2023-04-02T10:50:53.820Z,4.24
2023-04-02T10:51:53.801Z,4.24
2023-04-02T10:52:55.501Z,4.31
2023-04-02T10:53:53.735Z,4.22
2023-04-02T10:54:53.852Z,4.26
2023-04-02T10:55:55.069Z,4.45
2023-04-02T10:56:53.823Z,4.50
2023-04-02T10:57:53.873Z,4.48
2023-04-02T10:58:55.561Z,4.45
2023-04-02T10:59:54.566Z,4.45
2023-04-02T11:00:55.352Z,4.56
2023-04-02T11:01:53.839Z,4.56
2023-04-02T11:02:53.807Z,4.68
2023-04-02T11:03:53.753Z,4.71
2023-04-02T11:04:57.071Z,4.75
2023-04-02T11:05:53.690Z,4.67
2023-04-02T11:07:07.307Z,4.75
2023-04-02T11:07:55.672Z,4.80
2023-04-02T11:08:53.628Z,4.74
2023-04-02T11:09:53.655Z,4.74
2023-04-02T11:10:54.574Z,4.75
2023-04-02T11:11:54.444Z,4.78
2023-04-02T11:12:53.664Z,4.75
2023-04-02T11:13:53.693Z,4.63
2023-04-02T11:14:53.609Z,4.71
2023-04-02T11:15:55.363Z,4.70
2023-04-02T11:16:53.588Z,4.66
2023-04-02T11:17:54.576Z,4.66
2023-04-02T11:18:53.596Z,4.68
2023-04-02T11:19:53.565Z,4.70
2023-04-02T11:20:53.571Z,4.77
2023-04-02T11:21:59.711Z,4.74
2023-04-02T11:22:55.570Z,4.71
2023-04-02T11:23:53.554Z,4.87
2023-04-02T11:24:53.548Z,4.99
2023-04-02T11:25:53.496Z,4.90
2023-04-02T11:26:54.344Z,4.87
2023-04-02T11:27:54.079Z,4.75
2023-04-02T11:28:53.586Z,4.77
2023-04-02T11:29:53.557Z,4.73
2023-04-02T11:30:53.470Z,4.90
2023-04-02T11:31:53.515Z,4.82
2023-04-02T11:32:53.668Z,4.86
2023-04-02T11:33:53.444Z,4.73
2023-04-02T11:35:05.056Z,4.53
2023-04-02T11:35:55.469Z,4.49
2023-04-02T11:36:53.481Z,4.44
2023-04-02T11:37:53.430Z,4.45
2023-04-02T11:38:54.961Z,4.45
2023-04-02T11:39:53.471Z,4.34
2023-04-02T11:40:53.423Z,4.44
2023-04-02T11:41:53.432Z,4.56
2023-04-02T11:42:53.390Z,4.59
2023-04-02T11:43:53.410Z,4.48
2023-04-02T11:44:53.385Z,4.48
2023-04-02T11:45:53.755Z,4.41
2023-04-02T11:46:53.444Z,4.45
2023-04-02T11:47:53.406Z,4.41
2023-04-02T11:48:53.351Z,4.44
2023-04-02T11:49:53.338Z,4.28
2023-04-02T11:50:53.567Z,4.41
2023-04-02T11:52:02.314Z,4.49
2023-04-02T11:52:55.342Z,4.60
2023-04-02T11:53:53.295Z,4.50
2023-04-02T11:54:53.301Z,4.49
2023-04-02T11:55:54.085Z,4.63
2023-04-02T11:56:53.403Z,4.66
2023-04-02T11:57:53.297Z,4.66
2023-04-02T11:58:53.281Z,4.56
2023-04-02T11:59:54.068Z,4.58
2023-04-02T12:00:53.962Z,4.60
2023-04-02T12:01:53.313Z,4.53
2023-04-02T12:02:53.337Z,4.48
2023-04-02T12:03:53.270Z,4.44
2023-04-02T12:04:53.252Z,4.44
2023-04-02T12:05:53.225Z,4.38
2023-04-02T12:06:53.237Z,4.41
2023-04-02T12:07:53.281Z,4.38
2023-04-02T12:08:57.866Z,4.38
2023-04-02T12:09:56.116Z,4.40
2023-04-02T12:10:53.205Z,4.44
2023-04-02T12:11:53.152Z,4.49
2023-04-02T12:12:53.162Z,4.50
2023-04-02T12:13:54.046Z,4.56
2023-04-02T12:14:53.122Z,4.50
2023-04-02T12:15:53.198Z,4.52
2023-04-02T12:16:53.170Z,4.53
2023-04-02T12:17:53.146Z,4.60
2023-04-02T12:18:53.225Z,4.44
2023-04-02T12:19:53.152Z,4.41
2023-04-02T12:20:53.124Z,4.49
2023-04-02T12:21:53.086Z,4.48
2023-04-02T12:22:54.160Z,4.45
2023-04-02T12:23:53.775Z,4.42
2023-04-02T12:24:53.092Z,4.41
2023-04-02T12:25:53.077Z,4.44
2023-04-02T12:26:53.103Z,4.52
2023-04-02T12:27:53.037Z,4.42
2023-04-02T12:28:53.862Z,4.48
2023-04-02T12:29:53.074Z,4.60
2023-04-02T12:30:54.087Z,4.52
2023-04-02T12:31:53.041Z,4.58
2023-04-02T12:32:53.041Z,4.52
2023-04-02T12:33:53.034Z,4.53
2023-04-02T12:34:53.084Z,4.45
2023-04-02T12:35:54.586Z,4.45
2023-04-02T12:36:53.028Z,4.62
2023-04-02T12:37:52.979Z,4.49
2023-04-02T12:38:53.009Z,4.49
2023-04-02T12:39:52.950Z,4.56
2023-04-02T12:40:53.062Z,4.53
2023-04-02T12:41:53.554Z,4.56
2023-04-02T12:42:52.901Z,4.55
2023-04-02T12:43:52.920Z,4.58
2023-04-02T12:44:52.930Z,4.58
2023-04-02T12:45:52.973Z,4.56
2023-04-02T12:46:52.973Z,4.53
2023-04-02T12:47:52.908Z,4.55
2023-04-02T12:48:52.914Z,4.55
2023-04-02T12:49:52.900Z,4.56
2023-04-02T12:50:52.962Z,4.50
2023-04-02T12:51:53.172Z,4.62
2023-04-02T12:52:53.114Z,4.52
2023-04-02T12:53:52.850Z,4.58
2023-04-02T12:54:52.862Z,4.63
2023-04-02T12:55:52.821Z,4.59
2023-04-02T12:56:52.909Z,4.56
2023-04-02T12:57:53.932Z,4.62
2023-04-02T12:58:52.856Z,4.59
2023-04-02T12:59:52.840Z,4.56
2023-04-02T13:00:52.790Z,4.68
2023-04-02T13:01:52.817Z,4.55
2023-04-02T13:02:52.996Z,4.55
2023-04-02T13:03:52.844Z,4.63
2023-04-02T13:04:52.827Z,4.68
2023-04-02T13:06:25.519Z,4.68
2023-04-02T13:06:52.747Z,4.75
2023-04-02T13:08:25.337Z,4.60
2023-04-02T13:08:54.104Z,4.70
2023-04-02T13:09:53.639Z,4.62
2023-04-02T13:10:52.760Z,4.68
2023-04-02T13:11:52.751Z,4.73
2023-04-02T13:12:52.716Z,4.78
2023-04-02T13:13:52.740Z,4.86
2023-04-02T13:14:52.865Z,4.84
2023-04-02T13:15:52.804Z,4.86
2023-04-02T13:16:52.737Z,4.78
2023-04-02T13:17:52.850Z,5.00
2023-04-02T13:18:52.693Z,4.93
2023-04-02T13:19:54.418Z,5.10
2023-04-02T13:20:52.733Z,5.11
2023-04-02T13:21:52.685Z,4.97
2023-04-02T13:22:53.181Z,4.71
2023-04-02T13:23:52.660Z,4.90
2023-04-02T13:24:53.013Z,4.89
2023-04-02T13:25:52.621Z,5.07
2023-04-02T13:26:53.627Z,5.15
2023-04-02T13:27:52.612Z,4.86
2023-04-02T13:28:52.582Z,4.97
2023-04-02T13:29:52.585Z,5.10
2023-04-02T13:30:52.592Z,5.07
2023-04-02T13:31:52.807Z,4.99
2023-04-02T13:32:52.614Z,5.20
2023-04-02T13:33:52.589Z,5.17